Time;durP1;ratioP1;P1;durP2;ratioP2;P2;SDS_P1;SDS_P2;PMS_P1;PMS_P2;Temp;Humidity;BMP_temperature;BMP_pressure;BME280_temperature;BME280_humidity;BME280_pressure;Samples;Min_cycle;Max_cycle;Signal;HPM_P1;HPM_P2
2023/01/01 00:03:41;;;;;;;5.80;3.02;;;;;;;11.43;90.86;99370.61;3975993;87;21063;-90
2023/01/01 00:16:09;;;;;;;4.30;3.12;;;;;;;11.93;90.23;99361.84;3974682;87;21087;-90
2023/01/01 00:22:11;;;;;;;4.15;2.62;;;;;;;12.04;89.89;99374.33;3982528;87;21122;-91
2023/01/01 00:28:12;;;;;;;3.75;2.47;;;;;;;11.92;89.57;99368.50;3977448;87;21042;-90
2023/01/01 00:34:14;;;;;;;4.30;2.67;;;;;;;11.85;89.24;99371.17;3977082;87;21091;-89
2023/01/01 00:40:17;;;;;;;4.17;2.60;;;;;;;11.97;89.11;99383.84;3979152;87;21090;-90
2023/01/01 00:46:19;;;;;;;5.20;2.55;;;;;;;12.02;88.39;99391.73;3973511;87;21111;-90
2023/01/01 00:52:22;;;;;;;4.70;2.72;;;;;;;12.01;88.26;99395.05;4029297;84;21086;-89
2023/01/01 00:58:25;;;;;;;5.37;3.05;;;;;;;12.14;87.58;99386.78;4110109;85;21132;-91
2023/01/01 01:04:27;;;;;;;5.12;2.72;;;;;;;12.22;87.16;99389.02;4094364;85;21629;-89
2023/01/01 01:10:28;;;;;;;8.20;4.78;;;;;;;12.10;86.96;99383.80;4095959;85;21631;-90
2023/01/01 01:16:34;;;;;;;11.18;6.22;;;;;;;12.23;85.73;99383.75;4102088;85;21973;-90
2023/01/01 01:22:41;;;;;;;7.47;4.28;;;;;;;12.25;86.08;99378.08;4105264;85;21121;-89
2023/01/01 01:28:43;;;;;;;7.20;3.87;;;;;;;12.05;86.00;99371.78;4108621;85;21047;-89
2023/01/01 01:34:51;;;;;;;4.45;2.70;;;;;;;11.80;85.59;99376.98;4091632;85;21138;-91
2023/01/01 01:40:56;;;;;;;5.53;2.87;;;;;;;11.76;86.00;99370.66;4114913;85;21059;-90
2023/01/01 01:46:59;;;;;;;3.87;2.65;;;;;;;11.70;85.69;99371.38;4105285;85;21547;-90
2023/01/01 01:53:19;;;;;;;3.70;2.30;;;;;;;11.70;85.47;99371.38;4097588;85;21047;-90
2023/01/01 01:59:24;;;;;;;4.95;3.22;;;;;;;11.70;85.30;99360.41;4108572;85;21119;-89
2023/01/01 02:05:28;;;;;;;5.92;3.47;;;;;;;11.63;84.99;99359.73;4103095;85;21582;-89
2023/01/01 02:11:35;;;;;;;5.47;2.92;;;;;;;11.52;85.04;99362.09;4107663;85;21117;-91
2023/01/01 02:17:57;;;;;;;4.97;3.02;;;;;;;11.42;85.02;99363.53;4092009;85;21133;-90
2023/01/01 02:24:16;;;;;;;5.28;3.22;;;;;;;11.38;85.15;99363.27;4113307;85;21024;-90
2023/01/01 02:30:20;;;;;;;7.12;4.53;;;;;;;11.36;85.11;99353.25;4115839;85;21656;-90
2023/01/01 02:36:25;;;;;;;7.35;4.40;;;;;;;11.34;85.07;99352.25;4103511;85;21150;-91
2023/01/01 02:42:29;;;;;;;19.25;7.30;;;;;;;11.26;84.92;99343.72;4079960;85;21135;-90
2023/01/01 02:48:46;;;;;;;11.55;5.70;;;;;;;11.16;84.75;99346.32;4109388;85;21036;-91
2023/01/01 02:55:16;;;;;;;6.92;3.60;;;;;;;11.17;84.92;99330.08;4089953;85;21047;-87
2023/01/01 03:01:41;;;;;;;6.62;2.90;;;;;;;11.27;84.76;99317.91;4096381;85;21516;-90
2023/01/01 03:08:14;;;;;;;5.42;2.40;;;;;;;11.43;84.42;99316.36;4098241;85;21673;-89
2023/01/01 03:14:43;;;;;;;4.05;2.12;;;;;;;11.56;84.27;99332.78;4097327;85;21036;-90
2023/01/01 03:20:49;;;;;;;4.25;2.30;;;;;;;11.71;83.78;99324.38;4109548;85;21454;-91
2023/01/01 03:26:56;;;;;;;5.30;3.15;;;;;;;11.74;83.16;99320.89;4097390;85;20995;-91
2023/01/01 03:33:06;;;;;;;5.75;3.30;;;;;;;11.45;82.59;99330.48;4072985;85;21431;-91
2023/01/01 03:39:18;;;;;;;6.83;3.55;;;;;;;11.32;83.24;99337.35;4093533;84;21106;-91
2023/01/01 03:45:31;;;;;;;7.97;3.80;;;;;;;11.20;82.83;99336.98;4074604;85;21054;-91
2023/01/01 03:52:00;;;;;;;13.58;6.12;;;;;;;10.90;82.90;99337.52;4101835;85;21047;-91
2023/01/01 03:58:27;;;;;;;7.33;3.95;;;;;;;10.59;83.17;99341.35;4112944;85;21605;-91
2023/01/01 04:04:33;;;;;;;8.17;4.90;;;;;;;10.41;83.48;99343.02;4110438;84;21950;-90
2023/01/01 04:10:40;;;;;;;7.85;4.70;;;;;;;10.17;83.61;99351.56;4101809;83;21085;-90
2023/01/01 04:16:43;;;;;;;10.10;5.65;;;;;;;9.98;83.91;99348.83;4099722;85;21094;-91
2023/01/01 04:22:45;;;;;;;9.78;4.90;;;;;;;9.61;83.38;99376.98;4107554;85;21067;-90
2023/01/01 04:28:46;;;;;;;10.35;4.80;;;;;;;9.28;84.30;99363.78;4100803;85;21943;-90
2023/01/01 04:34:49;;;;;;;8.93;4.87;;;;;;;9.19;84.83;99379.00;4108993;85;21078;-90
2023/01/01 04:40:58;;;;;;;10.40;4.67;;;;;;;9.10;84.99;99382.50;4102177;85;21038;-91
2023/01/01 04:47:01;;;;;;;7.85;4.05;;;;;;;8.99;85.21;99381.47;4107958;85;21074;-90
2023/01/01 04:53:03;;;;;;;9.80;5.33;;;;;;;8.84;85.18;99382.85;4113417;84;21062;-90
2023/01/01 04:59:04;;;;;;;9.08;4.97;;;;;;;8.65;85.38;99374.58;4130092;84;21130;-89
2023/01/01 05:05:08;;;;;;;7.97;4.47;;;;;;;8.42;85.84;99372.26;4115980;84;21015;-90
2023/01/01 05:11:26;;;;;;;9.08;4.97;;;;;;;8.21;86.15;99382.57;4096325;85;21047;-89
2023/01/01 05:17:28;;;;;;;9.05;4.35;;;;;;;8.09;86.74;99384.01;4109661;85;21029;-90
2023/01/01 05:23:30;;;;;;;10.05;4.25;;;;;;;8.03;87.24;99394.39;4103960;85;21111;-90
2023/01/01 05:29:31;;;;;;;8.95;4.75;;;;;;;7.94;87.50;99395.89;4102834;85;21583;-91
2023/01/01 05:35:33;;;;;;;8.88;4.40;;;;;;;7.85;87.72;99389.80;4107088;85;21146;-90
2023/01/01 05:41:35;;;;;;;10.90;4.47;;;;;;;7.77;87.81;99384.48;4062561;85;21094;-90
2023/01/01 05:47:36;;;;;;;14.38;7.95;;;;;;;7.50;87.87;99394.23;4114657;85;20993;-90
2023/01/01 05:53:38;;;;;;;13.90;6.97;;;;;;;7.23;88.80;99411.33;4103517;85;21032;-90
2023/01/01 05:59:39;;;;;;;15.85;6.30;;;;;;;7.11;89.22;99429.02;4094674;86;20997;-90
2023/01/01 06:05:41;;;;;;;15.78;7.80;;;;;;;6.95;88.91;99428.14;4095100;85;21561;-90
2023/01/01 06:11:42;;;;;;;16.57;7.30;;;;;;;6.75;89.64;99457.58;4090949;85;21107;-89
2023/01/01 06:17:44;;;;;;;22.20;12.03;;;;;;;6.63;89.97;99486.14;4093475;84;21045;-89
2023/01/01 06:23:46;;;;;;;22.13;11.05;;;;;;;6.65;91.03;99474.92;4094819;85;21070;-89
2023/01/01 06:29:47;;;;;;;50.73;16.70;;;;;;;6.62;91.00;99491.36;4088827;85;21651;-90
2023/01/01 06:35:49;;;;;;;40.58;16.23;;;;;;;6.66;91.55;99502.34;4091509;85;21020;-90
2023/01/01 06:41:50;;;;;;;29.50;14.13;;;;;;;6.74;92.18;99505.53;4089109;85;21618;-90
2023/01/01 06:47:52;;;;;;;42.62;18.15;;;;;;;6.81;92.46;99518.84;4097273;85;21032;-90
2023/01/01 06:53:56;;;;;;;35.63;19.73;;;;;;;6.81;92.98;99529.73;4098822;85;21789;-89
2023/01/01 06:59:57;;;;;;;28.92;14.55;;;;;;;6.97;93.40;99517.03;4089364;85;21084;-90
2023/01/01 07:05:59;;;;;;;28.92;15.08;;;;;;;7.34;93.25;99539.65;4113749;83;21170;-90
2023/01/01 07:12:00;;;;;;;56.28;29.20;;;;;;;7.47;93.35;99533.84;4105521;84;21011;-91
2023/01/01 07:18:02;;;;;;;26.87;16.40;;;;;;;7.70;93.56;99537.71;4105311;85;21571;-90
2023/01/01 07:24:05;;;;;;;23.10;12.90;;;;;;;7.79;94.11;99538.93;4104901;85;22035;-89
2023/01/01 07:30:09;;;;;;;20.12;12.18;;;;;;;7.85;94.14;99548.45;4109780;85;20996;-90
2023/01/01 07:36:10;;;;;;;20.12;11.20;;;;;;;7.90;94.40;99557.20;4094407;85;21033;-90
2023/01/01 07:42:12;;;;;;;22.62;12.28;;;;;;;7.96;94.65;99550.38;4106838;84;21534;-90
2023/01/01 07:48:15;;;;;;;18.17;10.93;;;;;;;8.03;94.75;99562.06;4106657;85;21564;-90
2023/01/01 07:54:16;;;;;;;17.98;10.90;;;;;;;8.09;94.85;99560.69;4092898;85;21127;-91
2023/01/01 08:00:20;;;;;;;25.48;11.40;;;;;;;8.22;95.05;99560.08;4090068;85;20996;-90
2023/01/01 08:06:21;;;;;;;19.30;11.60;;;;;;;8.30;94.92;99564.05;4098332;85;21500;-91
2023/01/01 08:12:24;;;;;;;32.88;15.08;;;;;;;8.41;95.23;99571.20;4102128;85;21115;-90
2023/01/01 08:18:25;;;;;;;25.02;14.50;;;;;;;8.43;95.38;99587.44;4096097;85;21028;-90
2023/01/01 08:24:27;;;;;;;29.45;14.43;;;;;;;8.59;95.46;99594.31;4089900;85;21108;-92
2023/01/01 08:30:28;;;;;;;26.90;15.53;;;;;;;8.71;95.23;99590.96;4096177;85;21074;-91
2023/01/01 08:36:30;;;;;;;35.45;20.02;;;;;;;8.83;95.38;99604.55;4092882;85;21196;-90
2023/01/01 08:42:31;;;;;;;26.82;15.23;;;;;;;8.95;95.57;99614.63;4095689;85;21661;-90
2023/01/01 08:48:33;;;;;;;29.95;17.20;;;;;;;9.00;95.23;99624.73;4102886;84;21035;-90
2023/01/01 08:54:34;;;;;;;28.83;17.75;;;;;;;9.08;95.41;99631.18;4101551;85;21057;-91
2023/01/01 09:00:35;;;;;;;28.00;16.45;;;;;;;9.13;95.80;99654.92;4020803;86;21018;-90
2023/01/01 09:06:37;;;;;;;27.70;15.35;;;;;;;9.26;95.84;99653.72;4000112;87;21054;-90
2023/01/01 09:12:38;;;;;;;27.10;16.82;;;;;;;9.43;96.00;99667.05;4023989;87;21869;-91
2023/01/01 09:18:40;;;;;;;26.82;16.20;;;;;;;9.60;95.75;99670.01;4024800;86;21000;-90
2023/01/01 09:24:42;;;;;;;25.23;15.65;;;;;;;9.71;96.30;99671.67;4024753;86;21617;-90
2023/01/01 09:30:46;;;;;;;27.25;14.90;;;;;;;10.07;96.28;99668.09;4025277;86;21555;-91
2023/01/01 09:36:47;;;;;;;24.47;13.90;;;;;;;10.34;95.51;99660.32;4025362;85;21718;-90
2023/01/01 09:42:53;;;;;;;26.12;15.50;;;;;;;10.43;95.17;99648.59;4028927;86;21098;-90
2023/01/01 09:49:00;;;;;;;23.55;13.75;;;;;;;10.39;94.51;99647.73;4100754;85;21583;-90
2023/01/01 09:55:23;;;;;;;23.62;14.60;;;;;;;10.39;94.93;99653.77;4099421;85;21000;-91
2023/01/01 10:01:54;;;;;;;22.32;13.50;;;;;;;10.94;95.07;99648.71;4085177;85;21060;-91
2023/01/01 10:08:24;;;;;;;22.07;13.38;;;;;;;11.91;95.65;99631.67;4101520;85;21055;-91
2023/01/01 10:14:31;;;;;;;22.55;12.33;;;;;;;12.48;93.88;99607.21;4092405;85;21087;-92
2023/01/01 10:20:44;;;;;;;17.57;11.20;;;;;;;13.07;92.98;99592.62;4113402;85;21008;-91
2023/01/01 10:26:48;;;;;;;18.15;10.90;;;;;;;13.69;92.94;99586.92;4077141;85;21067;-92
2023/01/01 10:33:03;;;;;;;19.90;11.38;;;;;;;14.47;91.48;99602.61;4098333;85;21039;-91
2023/01/01 10:39:12;;;;;;;17.57;10.50;;;;;;;14.99;89.24;99576.63;4073977;85;21135;-91
2023/01/01 10:45:23;;;;;;;19.02;10.68;;;;;;;15.35;87.52;99590.69;4097570;85;21355;-90
2023/01/01 10:51:28;;;;;;;17.02;10.48;;;;;;;15.44;86.92;99581.45;4077609;85;21009;-91
2023/01/01 10:57:39;;;;;;;18.67;11.08;;;;;;;15.50;85.85;99572.21;4093194;84;21607;-91
2023/01/01 11:03:54;;;;;;;18.35;10.55;;;;;;;15.53;83.91;99573.57;4107148;85;21001;-91
2023/01/01 11:10:03;;;;;;;17.82;11.15;;;;;;;15.13;83.35;99573.89;4108978;85;21212;-92
2023/01/01 11:16:10;;;;;;;16.17;9.83;;;;;;;15.00;82.50;99580.17;4115406;85;21010;-92
2023/01/01 11:22:38;;;;;;;15.20;10.18;;;;;;;14.73;82.07;99571.44;4108068;85;21636;-92
2023/01/01 11:28:41;;;;;;;17.65;10.30;;;;;;;14.58;83.44;99553.25;4074154;85;21050;-92
2023/01/01 11:34:43;;;;;;;16.85;10.30;;;;;;;14.72;82.31;99561.56;4084696;85;21045;-92
2023/01/01 11:40:55;;;;;;;16.93;10.65;;;;;;;14.80;81.21;99554.14;4104383;85;22315;-91
2023/01/01 11:47:05;;;;;;;17.62;10.58;;;;;;;14.77;81.14;99548.03;4108988;85;21019;-91
2023/01/01 11:53:31;;;;;;;18.98;11.28;;;;;;;14.67;80.75;99549.57;4099338;85;21652;-92
2023/01/01 11:59:56;;;;;;;21.75;11.75;;;;;;;14.60;80.36;99541.27;4081088;85;22014;-91
2023/01/01 12:06:12;;;;;;;18.02;11.05;;;;;;;14.53;80.61;99532.19;4100291;84;21003;-91
2023/01/01 12:12:33;;;;;;;21.35;10.98;;;;;;;14.46;80.09;99540.41;4096366;85;21076;-91
2023/01/01 12:19:01;;;;;;;20.27;12.65;;;;;;;14.27;80.32;99535.23;4097194;85;21111;-91
2023/01/01 12:25:05;;;;;;;23.60;13.97;;;;;;;14.19;79.92;99537.91;4099096;85;21070;-92
2023/01/01 12:31:32;;;;;;;22.02;12.73;;;;;;;14.11;79.61;99549.25;4016378;87;21427;-90
2023/01/01 12:38:02;;;;;;;20.20;11.48;;;;;;;14.08;79.81;99540.39;3985871;87;21062;-90
2023/01/01 12:44:33;;;;;;;20.23;11.63;;;;;;;13.98;79.89;99561.78;4095570;85;21003;-91
2023/01/01 12:51:17;;;;;;;21.30;12.75;;;;;;;13.93;80.01;99555.25;4103310;84;21065;-92
2023/01/01 12:57:36;;;;;;;17.65;10.90;;;;;;;13.90;79.92;99548.56;4105866;83;21099;-90
2023/01/01 13:03:56;;;;;;;16.80;10.23;;;;;;;13.85;79.87;99556.38;4053749;85;21098;-90
2023/01/01 13:10:06;;;;;;;19.23;10.93;;;;;;;13.78;79.79;99535.09;4089941;84;21081;-91
2023/01/01 13:16:12;;;;;;;16.17;10.53;;;;;;;13.74;79.87;99528.79;4083060;86;21008;-90
2023/01/01 13:22:31;;;;;;;19.67;10.72;;;;;;;13.65;79.93;99531.09;4085201;85;21630;-91
2023/01/01 13:28:33;;;;;;;18.98;11.18;;;;;;;13.56;79.95;99533.97;4087445;85;21661;-91
2023/01/01 13:34:55;;;;;;;17.85;10.32;;;;;;;13.43;79.92;99545.84;4084240;86;21402;-90
2023/01/01 13:40:57;;;;;;;18.70;10.43;;;;;;;13.29;79.99;99563.59;4070863;84;21033;-91
2023/01/01 13:47:34;;;;;;;27.05;13.48;;;;;;;13.02;79.81;99575.09;4067956;85;21502;-90
2023/01/01 13:53:50;;;;;;;22.40;14.00;;;;;;;12.75;80.21;99585.36;4088255;86;21631;-91
2023/01/01 14:00:18;;;;;;;19.20;12.18;;;;;;;12.44;80.52;99595.38;4099912;85;21036;-90
2023/01/01 14:06:25;;;;;;;24.87;14.58;;;;;;;12.22;80.87;99611.34;4069235;85;21546;-91
2023/01/01 14:12:28;;;;;;;26.68;16.27;;;;;;;12.10;81.36;99619.23;4102439;85;21048;-91
2023/01/01 14:18:51;;;;;;;27.93;16.07;;;;;;;12.01;81.45;99613.80;4102720;85;21021;-90
2023/01/01 14:24:53;;;;;;;57.50;31.23;;;;;;;12.04;81.90;99615.20;4101278;85;21629;-90
2023/01/01 14:31:01;;;;;;;41.42;22.37;;;;;;;11.83;81.92;99613.52;4100720;85;21089;-90
2023/01/01 14:37:05;;;;;;;51.28;29.37;;;;;;;11.51;82.22;99617.64;4103855;85;21999;-90
2023/01/01 14:43:11;;;;;;;39.98;20.68;;;;;;;11.33;82.56;99630.25;4086169;85;21083;-91
2023/01/01 14:49:23;;;;;;;40.43;21.47;;;;;;;11.07;82.92;99620.58;4103001;85;21020;-90
2023/01/01 14:55:29;;;;;;;38.95;21.30;;;;;;;11.12;83.61;99623.00;4096287;85;21609;-90
2023/01/01 15:01:31;;;;;;;41.95;21.65;;;;;;;10.69;83.23;99638.39;4100107;85;21092;-90
2023/01/01 15:07:32;;;;;;;39.73;21.02;;;;;;;10.37;83.72;99645.12;4101261;85;21090;-90
2023/01/01 15:13:33;;;;;;;44.50;22.55;;;;;;;9.78;83.76;99659.53;4101846;85;21802;-90
2023/01/01 15:19:39;;;;;;;40.12;21.42;;;;;;;9.51;85.09;99662.00;4099626;85;21531;-89
2023/01/01 15:25:41;;;;;;;37.88;20.37;;;;;;;9.39;85.62;99671.64;4099750;85;21076;-90
2023/01/01 15:31:48;;;;;;;46.02;25.37;;;;;;;9.22;86.07;99676.04;4100337;85;21078;-90
2023/01/01 15:37:53;;;;;;;43.65;22.42;;;;;;;9.20;86.72;99672.08;4098730;85;21080;-90
2023/01/01 15:44:14;;;;;;;42.70;21.73;;;;;;;8.87;86.35;99673.70;4103206;85;21069;-91
2023/01/01 15:50:24;;;;;;;38.67;21.15;;;;;;;8.51;87.12;99686.09;4107113;84;20980;-90
2023/01/01 15:56:31;;;;;;;39.27;19.85;;;;;;;8.31;87.53;99695.78;4106116;85;21038;-91
2023/01/01 16:02:36;;;;;;;42.13;22.30;;;;;;;8.03;87.96;99703.84;4103387;85;21495;-89
2023/01/01 16:08:37;;;;;;;42.70;23.67;;;;;;;7.92;88.54;99704.84;4103444;85;21047;-89
2023/01/01 16:14:39;;;;;;;45.70;24.05;;;;;;;7.79;89.36;99697.02;4104877;85;21011;-90
2023/01/01 16:20:40;;;;;;;40.70;21.37;;;;;;;7.67;89.89;99703.81;4101575;85;21090;-89
2023/01/01 16:26:42;;;;;;;35.83;20.15;;;;;;;7.32;89.58;99709.40;4097441;84;21086;-90
2023/01/01 16:32:44;;;;;;;32.53;18.02;;;;;;;7.23;90.67;99724.48;4121635;84;21024;-90
2023/01/01 16:38:46;;;;;;;34.15;20.97;;;;;;;7.14;91.04;99715.58;4101961;85;21014;-89
2023/01/01 16:44:48;;;;;;;37.55;20.85;;;;;;;6.92;91.02;99713.20;4105675;85;20992;-89
2023/01/01 16:50:51;;;;;;;41.48;23.18;;;;;;;6.80;91.56;99721.88;4104150;85;21055;-90
2023/01/01 16:56:53;;;;;;;47.05;25.02;;;;;;;6.57;91.83;99734.22;4105117;85;21623;-90
2023/01/01 17:02:55;;;;;;;49.03;27.13;;;;;;;6.39;91.74;99741.69;4105330;85;21027;-90
2023/01/01 17:08:59;;;;;;;52.70;29.60;;;;;;;6.12;92.25;99747.03;4097246;85;21562;-91
2023/01/01 17:15:02;;;;;;;78.17;45.10;;;;;;;6.11;92.81;99744.64;4103185;85;21004;-90
2023/01/01 17:21:06;;;;;;;77.95;47.78;;;;;;;5.99;93.10;99738.55;3993479;84;10000430;-89
2023/01/01 17:27:07;;;;;;;53.73;29.82;;;;;;;5.98;94.19;99727.43;4106190;85;21129;-89
2023/01/01 17:33:09;;;;;;;48.08;27.77;;;;;;;5.91;94.65;99712.21;4109373;85;21027;-91
2023/01/01 17:39:13;;;;;;;58.83;32.23;;;;;;;5.76;94.57;99707.27;4105224;85;21101;-89
2023/01/01 17:45:14;;;;;;;55.67;30.17;;;;;;;5.58;94.36;99709.02;4101390;85;21094;-89
2023/01/01 17:51:17;;;;;;;66.20;35.17;;;;;;;5.37;94.83;99714.34;4104447;85;21015;-89
2023/01/01 17:57:19;;;;;;;59.33;31.25;;;;;;;5.10;94.32;99723.43;4103949;84;21067;-90
2023/01/01 18:03:21;;;;;;;67.50;37.33;;;;;;;5.06;96.38;99723.27;4101271;85;22168;-89
2023/01/01 18:09:24;;;;;;;76.37;41.28;;;;;;;5.04;95.91;99732.31;4012158;86;21143;-90
2023/01/01 18:15:25;;;;;;;69.75;40.58;;;;;;;5.10;96.73;99738.36;4110052;85;21586;-89
2023/01/01 18:21:27;;;;;;;99.22;52.90;;;;;;;5.05;96.54;99744.75;4113186;85;21476;-90
2023/01/01 18:27:28;;;;;;;85.00;47.93;;;;;;;4.99;97.15;99737.89;4102754;85;21071;-89
2023/01/01 18:33:33;;;;;;;74.47;39.95;;;;;;;4.85;96.81;99742.11;4012091;86;21783;-90
2023/01/01 18:39:40;;;;;;;87.30;44.03;;;;;;;4.63;96.83;99744.99;4112058;85;22046;-89
2023/01/01 18:45:38;;;;;;;100.90;51.90;;;;;;;4.54;97.09;99743.38;4108088;85;21098;-90
2023/01/01 18:51:39;;;;;;;96.75;51.73;;;;;;;4.51;97.79;99744.80;4104512;85;22091;-89
2023/01/01 18:57:44;;;;;;;96.30;51.83;;;;;;;4.47;98.47;99744.39;4107725;85;21612;-90
2023/01/01 19:03:49;;;;;;;123.92;65.75;;;;;;;4.36;98.29;99752.58;4104676;85;21070;-90
2023/01/01 19:09:51;;;;;;;103.62;55.48;;;;;;;4.34;98.54;99748.02;4106787;85;21067;-90
2023/01/01 19:16:03;;;;;;;118.15;60.40;;;;;;;4.35;98.76;99744.22;4033546;85;21560;-89
2023/01/01 19:22:29;;;;;;;116.25;61.02;;;;;;;4.21;99.00;99740.26;3966178;87;21179;-90
2023/01/01 19:28:35;;;;;;;119.70;61.20;;;;;;;4.12;99.02;99745.44;3987351;87;21043;-89
2023/01/01 19:34:38;;;;;;;88.13;47.10;;;;;;;3.89;98.70;99760.97;4032996;86;21084;-89
2023/01/01 19:40:39;;;;;;;121.60;60.73;;;;;;;3.76;99.31;99776.74;4023505;86;21034;-89
2023/01/01 19:46:40;;;;;;;123.02;61.15;;;;;;;3.79;99.83;99777.47;4001612;85;22119;-89
2023/01/01 19:52:43;;;;;;;138.88;77.60;;;;;;;3.68;99.32;99795.09;4018224;86;21051;-89
2023/01/01 19:58:45;;;;;;;163.97;94.07;;;;;;;3.55;99.19;99789.23;4008391;87;21203;-89
2023/01/01 20:04:47;;;;;;;144.35;82.85;;;;;;;3.65;100.00;99795.72;4027941;86;21067;-89
2023/01/01 20:10:48;;;;;;;132.43;72.75;;;;;;;3.67;100.00;99798.92;4024900;86;21632;-89
2023/01/01 20:16:50;;;;;;;125.75;66.92;;;;;;;3.63;100.00;99812.85;4020279;87;21132;-89
2023/01/01 20:22:52;;;;;;;135.18;72.50;;;;;;;3.50;100.00;99806.13;4096302;85;21657;-90
2023/01/01 20:35:13;;;;;;;146.32;79.15;;;;;;;3.32;100.00;99807.14;4098364;85;21092;-88
2023/01/01 20:41:24;;;;;;;147.32;78.85;;;;;;;3.26;100.00;99819.20;4085741;85;21083;-90
2023/01/01 20:47:25;;;;;;;152.27;82.85;;;;;;;3.22;100.00;99816.30;4111214;85;20963;-90
2023/01/01 20:53:28;;;;;;;142.85;74.53;;;;;;;3.21;100.00;99815.48;4098244;85;21504;-89
2023/01/01 20:59:30;;;;;;;164.77;81.42;;;;;;;3.20;100.00;99803.08;4107273;85;21001;-90
2023/01/01 21:05:32;;;;;;;135.40;71.87;;;;;;;3.16;100.00;99797.23;4109921;85;21043;-89
2023/01/01 21:11:34;;;;;;;155.67;79.47;;;;;;;2.96;100.00;99803.13;4113018;85;20984;-90
2023/01/01 21:17:36;;;;;;;146.82;78.42;;;;;;;2.88;100.00;99811.38;4108816;85;21615;-89
2023/01/01 21:23:37;;;;;;;159.67;83.33;;;;;;;2.84;100.00;99810.95;4110193;85;21380;-89
2023/01/01 21:29:44;;;;;;;160.70;88.90;;;;;;;2.87;100.00;99821.96;4106400;85;21650;-89
2023/01/01 21:35:45;;;;;;;156.70;86.60;;;;;;;2.90;100.00;99822.70;4104627;85;21039;-89
2023/01/01 21:41:47;;;;;;;159.95;86.42;;;;;;;2.85;100.00;99820.11;4113251;85;21934;-90
2023/01/01 21:47:48;;;;;;;144.82;78.10;;;;;;;2.86;100.00;99813.61;4113936;85;21038;-89
2023/01/01 21:53:51;;;;;;;147.05;75.92;;;;;;;2.94;100.00;99814.22;4115529;85;21082;-89
2023/01/01 21:59:53;;;;;;;133.43;69.60;;;;;;;2.97;100.00;99813.64;4126344;84;21090;-89
2023/01/01 22:05:55;;;;;;;130.82;65.65;;;;;;;2.98;100.00;99811.16;4122766;84;21083;-90
2023/01/01 22:12:17;;;;;;;120.10;62.53;;;;;;;3.00;100.00;99816.27;4117947;84;21425;-90
2023/01/01 22:18:24;;;;;;;109.97;58.20;;;;;;;2.99;100.00;99821.44;4127321;84;21153;-90
2023/01/01 22:24:33;;;;;;;106.07;55.33;;;;;;;2.99;100.00;99813.33;4127305;84;21011;-89
2023/01/01 22:30:41;;;;;;;105.83;55.92;;;;;;;3.05;100.00;99816.16;4131138;84;21091;-89
2023/01/01 22:36:43;;;;;;;97.62;50.83;;;;;;;3.11;100.00;99816.28;4121974;84;21019;-88
2023/01/01 22:42:44;;;;;;;91.28;48.42;;;;;;;3.16;100.00;99812.89;4126418;84;21006;-89
2023/01/01 22:48:46;;;;;;;80.90;42.53;;;;;;;3.13;100.00;99813.51;4128002;84;21539;-89
2023/01/01 22:54:47;;;;;;;94.43;48.97;;;;;;;3.02;100.00;99799.97;4130483;84;21560;-89
2023/01/01 23:00:48;;;;;;;88.95;46.75;;;;;;;3.05;100.00;99793.95;4107580;84;21136;-89
2023/01/01 23:06:51;;;;;;;92.10;44.67;;;;;;;3.01;100.00;99790.81;4105346;85;22043;-88
2023/01/01 23:12:52;;;;;;;91.80;44.00;;;;;;;2.92;100.00;99795.35;4105388;85;21380;-88
2023/01/01 23:18:54;;;;;;;79.97;39.23;;;;;;;2.73;100.00;99796.86;4110330;85;21041;-89
2023/01/01 23:24:55;;;;;;;92.53;47.30;;;;;;;2.68;100.00;99801.02;4108484;85;20998;-89
2023/01/01 23:30:59;;;;;;;94.42;48.52;;;;;;;2.63;100.00;99801.70;4112410;85;21066;-89
2023/01/01 23:37:01;;;;;;;70.35;36.45;;;;;;;2.64;100.00;99806.80;4102312;85;21641;-90
2023/01/01 23:43:02;;;;;;;75.15;38.78;;;;;;;2.64;100.00;99804.64;4103300;85;21026;-88
2023/01/01 23:49:05;;;;;;;88.07;42.58;;;;;;;2.58;100.00;99803.15;4104721;85;21000;-89
2023/01/01 23:55:07;;;;;;;80.83;43.90;;;;;;;2.52;100.00;99786.80;4106870;85;21123;-88
